sensor_id;sensor_type;location;lat;lon;timestamp;P1;durP1;ratioP1;P2;durP2;ratioP2
355;SDS011;62514;48.112;11.566;2023-12-20T00:01:02;380.30;;;79.07;;
355;SDS011;62514;48.112;11.566;2023-12-20T00:03:28;378.93;;;78.13;;
355;SDS011;62514;48.112;11.566;2023-12-20T00:05:54;307.57;;;63.63;;
355;SDS011;62514;48.112;11.566;2023-12-20T00:08:20;366.53;;;75.97;;
355;SDS011;62514;48.112;11.566;2023-12-20T00:10:46;353.57;;;73.50;;
355;SDS011;62514;48.112;11.566;2023-12-20T00:13:12;365.40;;;73.50;;
355;SDS011;62514;48.112;11.566;2023-12-20T00:15:37;366.10;;;76.63;;
355;SDS011;62514;48.112;11.566;2023-12-20T00:18:03;372.73;;;77.50;;
355;SDS011;62514;48.112;11.566;2023-12-20T00:20:29;374.20;;;77.40;;
355;SDS011;62514;48.112;11.566;2023-12-20T00:22:58;366.10;;;75.53;;
355;SDS011;62514;48.112;11.566;2023-12-20T00:25:24;366.97;;;75.60;;
355;SDS011;62514;48.112;11.566;2023-12-20T00:27:49;370.37;;;75.17;;
355;SDS011;62514;48.112;11.566;2023-12-20T00:30:16;371.17;;;76.23;;
355;SDS011;62514;48.112;11.566;2023-12-20T00:32:41;373.80;;;78.67;;
355;SDS011;62514;48.112;11.566;2023-12-20T00:35:18;378.37;;;79.20;;
355;SDS011;62514;48.112;11.566;2023-12-20T00:37:44;380.93;;;78.40;;
355;SDS011;62514;48.112;11.566;2023-12-20T00:40:10;371.10;;;73.30;;
355;SDS011;62514;48.112;11.566;2023-12-20T00:42:36;380.93;;;81.67;;
355;SDS011;62514;48.112;11.566;2023-12-20T00:45:02;375.03;;;75.80;;
355;SDS011;62514;48.112;11.566;2023-12-20T00:47:29;365.70;;;73.63;;
355;SDS011;62514;48.112;11.566;2023-12-20T00:49:55;361.03;;;74.27;;
355;SDS011;62514;48.112;11.566;2023-12-20T00:52:21;372.37;;;85.90;;
355;SDS011;62514;48.112;11.566;2023-12-20T00:54:47;71.07;;;18.97;;
355;SDS011;62514;48.112;11.566;2023-12-20T00:57:13;25.00;;;7.73;;
355;SDS011;62514;48.112;11.566;2023-12-20T00:59:39;273.63;;;59.73;;
355;SDS011;62514;48.112;11.566;2023-12-20T01:02:05;346.67;;;73.10;;
355;SDS011;62514;48.112;11.566;2023-12-20T01:04:31;329.10;;;68.40;;
355;SDS011;62514;48.112;11.566;2023-12-20T01:06:57;346.50;;;76.80;;
355;SDS011;62514;48.112;11.566;2023-12-20T01:09:22;332.10;;;70.07;;
355;SDS011;62514;48.112;11.566;2023-12-20T01:11:51;342.80;;;76.27;;
355;SDS011;62514;48.112;11.566;2023-12-20T01:14:17;328.03;;;68.33;;
355;SDS011;62514;48.112;11.566;2023-12-20T01:16:43;347.40;;;80.47;;
355;SDS011;62514;48.112;11.566;2023-12-20T01:19:08;329.57;;;70.37;;
355;SDS011;62514;48.112;11.566;2023-12-20T01:21:34;341.70;;;74.77;;
355;SDS011;62514;48.112;11.566;2023-12-20T01:24:00;322.13;;;70.00;;
355;SDS011;62514;48.112;11.566;2023-12-20T01:26:25;331.77;;;72.87;;
355;SDS011;62514;48.112;11.566;2023-12-20T01:28:51;325.03;;;70.57;;
355;SDS011;62514;48.112;11.566;2023-12-20T01:31:17;331.73;;;71.70;;
355;SDS011;62514;48.112;11.566;2023-12-20T01:33:42;343.20;;;79.30;;
355;SDS011;62514;48.112;11.566;2023-12-20T01:36:08;322.13;;;67.77;;
355;SDS011;62514;48.112;11.566;2023-12-20T01:38:34;335.33;;;73.00;;
355;SDS011;62514;48.112;11.566;2023-12-20T01:41:00;328.17;;;69.37;;
355;SDS011;62514;48.112;11.566;2023-12-20T01:43:25;331.07;;;69.97;;
355;SDS011;62514;48.112;11.566;2023-12-20T01:45:52;326.90;;;69.97;;
355;SDS011;62514;48.112;11.566;2023-12-20T01:48:18;326.40;;;71.47;;
355;SDS011;62514;48.112;11.566;2023-12-20T01:50:44;346.03;;;78.27;;
355;SDS011;62514;48.112;11.566;2023-12-20T01:53:11;333.83;;;71.17;;
355;SDS011;62514;48.112;11.566;2023-12-20T01:55:39;340.37;;;75.77;;
355;SDS011;62514;48.112;11.566;2023-12-20T01:58:06;324.50;;;68.60;;
355;SDS011;62514;48.112;11.566;2023-12-20T02:00:33;329.13;;;72.03;;
355;SDS011;62514;48.112;11.566;2023-12-20T02:03:00;322.70;;;68.43;;
355;SDS011;62514;48.112;11.566;2023-12-20T02:05:27;336.10;;;73.73;;
355;SDS011;62514;48.112;11.566;2023-12-20T02:07:54;331.27;;;71.87;;
355;SDS011;62514;48.112;11.566;2023-12-20T02:10:19;323.30;;;68.07;;
355;SDS011;62514;48.112;11.566;2023-12-20T02:12:45;324.83;;;69.70;;
355;SDS011;62514;48.112;11.566;2023-12-20T02:15:11;323.77;;;67.47;;
355;SDS011;62514;48.112;11.566;2023-12-20T02:17:37;325.27;;;69.63;;
355;SDS011;62514;48.112;11.566;2023-12-20T02:20:04;334.60;;;70.87;;
355;SDS011;62514;48.112;11.566;2023-12-20T02:22:30;332.60;;;71.67;;
355;SDS011;62514;48.112;11.566;2023-12-20T02:24:56;339.20;;;71.70;;
355;SDS011;62514;48.112;11.566;2023-12-20T02:27:22;337.83;;;73.93;;
355;SDS011;62514;48.112;11.566;2023-12-20T02:29:48;332.43;;;72.00;;
355;SDS011;62514;48.112;11.566;2023-12-20T02:32:15;340.20;;;74.17;;
355;SDS011;62514;48.112;11.566;2023-12-20T02:34:42;347.93;;;78.77;;
355;SDS011;62514;48.112;11.566;2023-12-20T02:37:08;321.50;;;70.17;;
355;SDS011;62514;48.112;11.566;2023-12-20T02:39:34;337.37;;;75.43;;
355;SDS011;62514;48.112;11.566;2023-12-20T02:41:59;334.03;;;74.70;;
355;SDS011;62514;48.112;11.566;2023-12-20T02:44:25;365.30;;;89.67;;
355;SDS011;62514;48.112;11.566;2023-12-20T02:46:51;337.07;;;75.70;;
355;SDS011;62514;48.112;11.566;2023-12-20T02:49:16;337.97;;;72.80;;
355;SDS011;62514;48.112;11.566;2023-12-20T02:51:42;348.83;;;78.10;;
355;SDS011;62514;48.112;11.566;2023-12-20T02:54:08;350.03;;;74.80;;
355;SDS011;62514;48.112;11.566;2023-12-20T02:56:33;346.37;;;74.37;;
355;SDS011;62514;48.112;11.566;2023-12-20T02:58:59;340.13;;;72.87;;
355;SDS011;62514;48.112;11.566;2023-12-20T03:01:25;344.13;;;72.50;;
355;SDS011;62514;48.112;11.566;2023-12-20T03:03:51;367.67;;;82.87;;
355;SDS011;62514;48.112;11.566;2023-12-20T03:06:20;350.50;;;75.63;;
355;SDS011;62514;48.112;11.566;2023-12-20T03:08:46;371.37;;;85.47;;
355;SDS011;62514;48.112;11.566;2023-12-20T03:11:11;349.40;;;74.07;;
355;SDS011;62514;48.112;11.566;2023-12-20T03:13:37;362.70;;;79.80;;
355;SDS011;62514;48.112;11.566;2023-12-20T03:16:09;372.53;;;79.70;;
355;SDS011;62514;48.112;11.566;2023-12-20T03:18:39;369.53;;;78.07;;
355;SDS011;62514;48.112;11.566;2023-12-20T03:21:05;384.80;;;82.13;;
355;SDS011;62514;48.112;11.566;2023-12-20T03:23:31;367.17;;;76.93;;
355;SDS011;62514;48.112;11.566;2023-12-20T03:25:58;388.80;;;83.90;;
355;SDS011;62514;48.112;11.566;2023-12-20T03:28:24;384.50;;;80.93;;
355;SDS011;62514;48.112;11.566;2023-12-20T03:30:51;380.27;;;76.83;;
355;SDS011;62514;48.112;11.566;2023-12-20T03:33:17;332.03;;;77.07;;
355;SDS011;62514;48.112;11.566;2023-12-20T03:35:43;317.23;;;78.83;;
355;SDS011;62514;48.112;11.566;2023-12-20T03:38:08;291.70;;;68.57;;
355;SDS011;62514;48.112;11.566;2023-12-20T03:40:34;286.30;;;68.03;;
355;SDS011;62514;48.112;11.566;2023-12-20T03:43:00;285.47;;;67.80;;
355;SDS011;62514;48.112;11.566;2023-12-20T03:45:26;274.53;;;61.57;;
355;SDS011;62514;48.112;11.566;2023-12-20T03:47:51;283.47;;;66.17;;
355;SDS011;62514;48.112;11.566;2023-12-20T03:50:22;297.40;;;70.97;;
355;SDS011;62514;48.112;11.566;2023-12-20T03:52:47;292.33;;;69.33;;
355;SDS011;62514;48.112;11.566;2023-12-20T03:55:13;324.67;;;87.10;;
355;SDS011;62514;48.112;11.566;2023-12-20T03:57:39;290.60;;;70.43;;
355;SDS011;62514;48.112;11.566;2023-12-20T04:00:05;277.80;;;65.87;;
355;SDS011;62514;48.112;11.566;2023-12-20T04:02:35;272.73;;;62.67;;
355;SDS011;62514;48.112;11.566;2023-12-20T04:05:05;269.87;;;61.57;;
355;SDS011;62514;48.112;11.566;2023-12-20T04:07:32;270.70;;;61.77;;
355;SDS011;62514;48.112;11.566;2023-12-20T04:09:57;274.47;;;64.10;;
355;SDS011;62514;48.112;11.566;2023-12-20T04:12:23;276.07;;;65.20;;
355;SDS011;62514;48.112;11.566;2023-12-20T04:14:49;274.83;;;66.77;;
355;SDS011;62514;48.112;11.566;2023-12-20T04:17:17;268.00;;;61.80;;
355;SDS011;62514;48.112;11.566;2023-12-20T04:19:43;294.37;;;74.07;;
355;SDS011;62514;48.112;11.566;2023-12-20T04:22:09;271.30;;;65.20;;
355;SDS011;62514;48.112;11.566;2023-12-20T04:24:34;262.10;;;61.20;;
355;SDS011;62514;48.112;11.566;2023-12-20T04:27:00;267.97;;;61.97;;
355;SDS011;62514;48.112;11.566;2023-12-20T04:29:26;267.67;;;64.60;;
355;SDS011;62514;48.112;11.566;2023-12-20T04:31:52;271.07;;;66.57;;
355;SDS011;62514;48.112;11.566;2023-12-20T04:34:18;268.17;;;62.90;;
355;SDS011;62514;48.112;11.566;2023-12-20T04:36:43;271.30;;;66.63;;
355;SDS011;62514;48.112;11.566;2023-12-20T04:39:10;262.00;;;60.03;;
355;SDS011;62514;48.112;11.566;2023-12-20T04:41:36;267.57;;;63.00;;
355;SDS011;62514;48.112;11.566;2023-12-20T04:44:02;262.67;;;61.50;;
355;SDS011;62514;48.112;11.566;2023-12-20T04:46:28;265.87;;;62.90;;
355;SDS011;62514;48.112;11.566;2023-12-20T04:48:53;271.37;;;64.90;;
355;SDS011;62514;48.112;11.566;2023-12-20T04:51:19;259.80;;;60.60;;
355;SDS011;62514;48.112;11.566;2023-12-20T04:53:45;270.40;;;65.03;;
355;SDS011;62514;48.112;11.566;2023-12-20T04:56:10;262.27;;;61.67;;
355;SDS011;62514;48.112;11.566;2023-12-20T04:58:36;261.07;;;62.70;;
355;SDS011;62514;48.112;11.566;2023-12-20T05:01:03;255.60;;;61.13;;
355;SDS011;62514;48.112;11.566;2023-12-20T05:03:30;257.53;;;61.17;;
355;SDS011;62514;48.112;11.566;2023-12-20T05:05:56;261.57;;;62.17;;
355;SDS011;62514;48.112;11.566;2023-12-20T05:08:22;253.23;;;59.93;;
355;SDS011;62514;48.112;11.566;2023-12-20T05:10:47;260.83;;;64.63;;
355;SDS011;62514;48.112;11.566;2023-12-20T05:13:13;261.37;;;64.37;;
355;SDS011;62514;48.112;11.566;2023-12-20T05:15:39;252.50;;;60.53;;
355;SDS011;62514;48.112;11.566;2023-12-20T05:18:04;241.50;;;58.07;;
355;SDS011;62514;48.112;11.566;2023-12-20T05:20:30;264.60;;;65.40;;
355;SDS011;62514;48.112;11.566;2023-12-20T05:22:56;248.73;;;58.93;;
355;SDS011;62514;48.112;11.566;2023-12-20T05:25:21;254.17;;;61.30;;
355;SDS011;62514;48.112;11.566;2023-12-20T05:27:47;249.00;;;60.53;;
355;SDS011;62514;48.112;11.566;2023-12-20T05:30:13;248.00;;;60.97;;
355;SDS011;62514;48.112;11.566;2023-12-20T05:32:39;245.50;;;59.37;;
355;SDS011;62514;48.112;11.566;2023-12-20T05:35:05;250.30;;;61.10;;
355;SDS011;62514;48.112;11.566;2023-12-20T05:37:31;243.00;;;57.17;;
355;SDS011;62514;48.112;11.566;2023-12-20T05:39:56;252.60;;;61.90;;
355;SDS011;62514;48.112;11.566;2023-12-20T05:42:22;244.60;;;58.23;;
355;SDS011;62514;48.112;11.566;2023-12-20T05:44:48;244.03;;;59.83;;
355;SDS011;62514;48.112;11.566;2023-12-20T05:47:13;240.57;;;58.13;;
355;SDS011;62514;48.112;11.566;2023-12-20T05:49:39;245.30;;;61.00;;
355;SDS011;62514;48.112;11.566;2023-12-20T05:52:05;234.60;;;56.17;;
355;SDS011;62514;48.112;11.566;2023-12-20T05:54:30;240.47;;;58.57;;
355;SDS011;62514;48.112;11.566;2023-12-20T05:56:56;247.37;;;62.00;;
355;SDS011;62514;48.112;11.566;2023-12-20T05:59:22;247.33;;;61.93;;
355;SDS011;62514;48.112;11.566;2023-12-20T06:01:48;253.97;;;61.73;;
355;SDS011;62514;48.112;11.566;2023-12-20T06:04:13;256.40;;;65.03;;
355;SDS011;62514;48.112;11.566;2023-12-20T06:06:42;251.17;;;63.50;;
355;SDS011;62514;48.112;11.566;2023-12-20T06:09:08;235.00;;;57.13;;
355;SDS011;62514;48.112;11.566;2023-12-20T06:11:34;246.30;;;58.93;;
355;SDS011;62514;48.112;11.566;2023-12-20T06:14:00;238.37;;;58.30;;
355;SDS011;62514;48.112;11.566;2023-12-20T06:16:25;216.93;;;53.67;;
355;SDS011;62514;48.112;11.566;2023-12-20T06:18:51;235.60;;;61.60;;
355;SDS011;62514;48.112;11.566;2023-12-20T06:21:17;222.33;;;56.03;;
355;SDS011;62514;48.112;11.566;2023-12-20T06:23:42;231.10;;;60.03;;
355;SDS011;62514;48.112;11.566;2023-12-20T06:26:08;223.93;;;55.67;;
355;SDS011;62514;48.112;11.566;2023-12-20T06:28:34;222.50;;;55.30;;
355;SDS011;62514;48.112;11.566;2023-12-20T06:30:59;219.23;;;54.93;;
355;SDS011;62514;48.112;11.566;2023-12-20T06:33:26;235.57;;;59.63;;
355;SDS011;62514;48.112;11.566;2023-12-20T06:35:52;233.90;;;59.63;;
355;SDS011;62514;48.112;11.566;2023-12-20T06:38:18;246.23;;;62.03;;
355;SDS011;62514;48.112;11.566;2023-12-20T06:40:44;236.13;;;58.83;;
355;SDS011;62514;48.112;11.566;2023-12-20T06:43:10;218.73;;;53.10;;
355;SDS011;62514;48.112;11.566;2023-12-20T06:45:37;215.97;;;53.30;;
355;SDS011;62514;48.112;11.566;2023-12-20T06:48:02;225.07;;;55.37;;
355;SDS011;62514;48.112;11.566;2023-12-20T06:50:28;219.97;;;54.60;;
355;SDS011;62514;48.112;11.566;2023-12-20T06:52:54;231.33;;;58.37;;
355;SDS011;62514;48.112;11.566;2023-12-20T06:55:20;223.30;;;55.23;;
355;SDS011;62514;48.112;11.566;2023-12-20T06:57:45;214.70;;;53.23;;
355;SDS011;62514;48.112;11.566;2023-12-20T07:00:11;220.10;;;54.77;;
355;SDS011;62514;48.112;11.566;2023-12-20T07:02:37;215.23;;;53.70;;
355;SDS011;62514;48.112;11.566;2023-12-20T07:05:03;216.50;;;53.60;;
355;SDS011;62514;48.112;11.566;2023-12-20T07:07:29;228.17;;;57.47;;
355;SDS011;62514;48.112;11.566;2023-12-20T07:09:55;229.33;;;56.57;;
355;SDS011;62514;48.112;11.566;2023-12-20T07:12:21;217.97;;;53.13;;
355;SDS011;62514;48.112;11.566;2023-12-20T07:14:46;230.20;;;57.30;;
355;SDS011;62514;48.112;11.566;2023-12-20T07:17:12;240.23;;;61.83;;
355;SDS011;62514;48.112;11.566;2023-12-20T07:19:40;238.77;;;61.20;;
355;SDS011;62514;48.112;11.566;2023-12-20T07:22:07;220.37;;;54.40;;
355;SDS011;62514;48.112;11.566;2023-12-20T07:24:33;229.17;;;57.63;;
355;SDS011;62514;48.112;11.566;2023-12-20T07:26:59;228.23;;;58.40;;
355;SDS011;62514;48.112;11.566;2023-12-20T07:29:25;245.50;;;65.33;;
355;SDS011;62514;48.112;11.566;2023-12-20T07:31:52;232.93;;;59.37;;
355;SDS011;62514;48.112;11.566;2023-12-20T07:34:19;264.37;;;75.10;;
355;SDS011;62514;48.112;11.566;2023-12-20T07:36:45;239.40;;;62.20;;
355;SDS011;62514;48.112;11.566;2023-12-20T07:39:12;230.67;;;57.97;;
355;SDS011;62514;48.112;11.566;2023-12-20T07:41:38;235.63;;;58.70;;
355;SDS011;62514;48.112;11.566;2023-12-20T07:44:04;225.53;;;56.97;;
355;SDS011;62514;48.112;11.566;2023-12-20T07:46:30;217.13;;;54.53;;
355;SDS011;62514;48.112;11.566;2023-12-20T07:48:55;236.43;;;60.83;;
355;SDS011;62514;48.112;11.566;2023-12-20T07:51:21;231.27;;;58.93;;
355;SDS011;62514;48.112;11.566;2023-12-20T07:53:47;229.90;;;57.77;;
355;SDS011;62514;48.112;11.566;2023-12-20T07:56:13;223.60;;;55.57;;
355;SDS011;62514;48.112;11.566;2023-12-20T07:58:42;230.63;;;58.50;;
355;SDS011;62514;48.112;11.566;2023-12-20T08:01:08;230.23;;;59.00;;
355;SDS011;62514;48.112;11.566;2023-12-20T08:03:34;230.60;;;59.43;;
355;SDS011;62514;48.112;11.566;2023-12-20T08:06:00;229.63;;;58.10;;
355;SDS011;62514;48.112;11.566;2023-12-20T08:08:26;232.73;;;60.30;;
355;SDS011;62514;48.112;11.566;2023-12-20T08:10:51;228.77;;;58.93;;
355;SDS011;62514;48.112;11.566;2023-12-20T08:13:17;218.10;;;53.80;;
355;SDS011;62514;48.112;11.566;2023-12-20T08:15:43;232.03;;;60.03;;
355;SDS011;62514;48.112;11.566;2023-12-20T08:18:08;229.77;;;59.27;;
355;SDS011;62514;48.112;11.566;2023-12-20T08:20:34;234.67;;;61.93;;
355;SDS011;62514;48.112;11.566;2023-12-20T08:23:00;223.63;;;55.57;;
355;SDS011;62514;48.112;11.566;2023-12-20T08:25:25;232.73;;;60.80;;
355;SDS011;62514;48.112;11.566;2023-12-20T08:27:52;233.27;;;59.13;;
355;SDS011;62514;48.112;11.566;2023-12-20T08:30:18;230.50;;;59.20;;
355;SDS011;62514;48.112;11.566;2023-12-20T08:32:47;222.40;;;56.37;;
355;SDS011;62514;48.112;11.566;2023-12-20T08:35:13;225.00;;;57.87;;
355;SDS011;62514;48.112;11.566;2023-12-20T08:37:39;240.30;;;63.23;;
355;SDS011;62514;48.112;11.566;2023-12-20T08:40:05;245.43;;;66.37;;
355;SDS011;62514;48.112;11.566;2023-12-20T08:42:31;236.80;;;63.10;;
355;SDS011;62514;48.112;11.566;2023-12-20T08:44:57;215.30;;;52.47;;
355;SDS011;62514;48.112;11.566;2023-12-20T08:47:26;217.23;;;53.30;;
355;SDS011;62514;48.112;11.566;2023-12-20T08:49:52;223.53;;;55.43;;
355;SDS011;62514;48.112;11.566;2023-12-20T08:52:22;214.13;;;52.50;;
355;SDS011;62514;48.112;11.566;2023-12-20T08:54:48;221.70;;;54.97;;
355;SDS011;62514;48.112;11.566;2023-12-20T08:57:19;216.03;;;52.70;;
355;SDS011;62514;48.112;11.566;2023-12-20T08:59:46;226.70;;;56.80;;
355;SDS011;62514;48.112;11.566;2023-12-20T09:02:12;217.17;;;53.70;;
355;SDS011;62514;48.112;11.566;2023-12-20T09:04:38;218.03;;;53.60;;
355;SDS011;62514;48.112;11.566;2023-12-20T09:07:04;225.20;;;55.10;;
355;SDS011;62514;48.112;11.566;2023-12-20T09:09:30;217.63;;;52.37;;
355;SDS011;62514;48.112;11.566;2023-12-20T09:11:57;223.37;;;55.63;;
355;SDS011;62514;48.112;11.566;2023-12-20T09:14:23;246.60;;;67.27;;
355;SDS011;62514;48.112;11.566;2023-12-20T09:16:48;223.43;;;55.03;;
355;SDS011;62514;48.112;11.566;2023-12-20T09:19:16;214.50;;;52.90;;
355;SDS011;62514;48.112;11.566;2023-12-20T09:21:42;223.87;;;54.53;;
355;SDS011;62514;48.112;11.566;2023-12-20T09:24:08;223.03;;;54.60;;
355;SDS011;62514;48.112;11.566;2023-12-20T09:26:34;234.90;;;57.93;;
355;SDS011;62514;48.112;11.566;2023-12-20T09:29:00;223.13;;;53.87;;
355;SDS011;62514;48.112;11.566;2023-12-20T09:31:26;226.43;;;54.73;;
355;SDS011;62514;48.112;11.566;2023-12-20T09:33:52;227.37;;;54.17;;
355;SDS011;62514;48.112;11.566;2023-12-20T09:36:17;227.20;;;55.10;;
355;SDS011;62514;48.112;11.566;2023-12-20T09:38:43;233.13;;;58.23;;
355;SDS011;62514;48.112;11.566;2023-12-20T09:41:09;227.47;;;54.50;;
355;SDS011;62514;48.112;11.566;2023-12-20T09:43:38;231.30;;;56.50;;
355;SDS011;62514;48.112;11.566;2023-12-20T09:46:05;227.87;;;55.40;;
355;SDS011;62514;48.112;11.566;2023-12-20T09:48:32;217.60;;;53.57;;
355;SDS011;62514;48.112;11.566;2023-12-20T09:50:58;221.70;;;54.80;;
355;SDS011;62514;48.112;11.566;2023-12-20T09:53:24;220.97;;;55.50;;
355;SDS011;62514;48.112;11.566;2023-12-20T09:55:55;215.70;;;53.70;;
355;SDS011;62514;48.112;11.566;2023-12-20T09:58:25;222.27;;;54.20;;
355;SDS011;62514;48.112;11.566;2023-12-20T10:00:50;219.50;;;55.03;;
355;SDS011;62514;48.112;11.566;2023-12-20T10:03:17;218.13;;;53.27;;
355;SDS011;62514;48.112;11.566;2023-12-20T10:05:51;217.20;;;54.90;;
355;SDS011;62514;48.112;11.566;2023-12-20T10:08:21;221.27;;;55.17;;
355;SDS011;62514;48.112;11.566;2023-12-20T10:10:47;222.77;;;55.50;;
355;SDS011;62514;48.112;11.566;2023-12-20T10:13:14;222.20;;;55.40;;
355;SDS011;62514;48.112;11.566;2023-12-20T10:15:40;227.60;;;56.70;;
355;SDS011;62514;48.112;11.566;2023-12-20T10:18:06;220.10;;;54.93;;
355;SDS011;62514;48.112;11.566;2023-12-20T10:20:32;233.57;;;56.33;;
355;SDS011;62514;48.112;11.566;2023-12-20T10:22:58;229.60;;;55.70;;
355;SDS011;62514;48.112;11.566;2023-12-20T10:25:25;225.87;;;54.60;;
355;SDS011;62514;48.112;11.566;2023-12-20T10:28:08;236.60;;;57.40;;
355;SDS011;62514;48.112;11.566;2023-12-20T10:30:37;230.10;;;55.87;;
355;SDS011;62514;48.112;11.566;2023-12-20T10:33:05;232.37;;;56.97;;
355;SDS011;62514;48.112;11.566;2023-12-20T10:35:33;229.27;;;55.73;;
355;SDS011;62514;48.112;11.566;2023-12-20T10:38:00;228.13;;;55.00;;
355;SDS011;62514;48.112;11.566;2023-12-20T10:40:28;236.67;;;57.30;;
355;SDS011;62514;48.112;11.566;2023-12-20T10:42:55;238.57;;;57.03;;
355;SDS011;62514;48.112;11.566;2023-12-20T10:45:22;236.60;;;56.00;;
355;SDS011;62514;48.112;11.566;2023-12-20T10:47:48;231.90;;;56.37;;
355;SDS011;62514;48.112;11.566;2023-12-20T10:50:15;233.30;;;55.63;;
355;SDS011;62514;48.112;11.566;2023-12-20T10:52:41;246.93;;;57.10;;
355;SDS011;62514;48.112;11.566;2023-12-20T10:55:07;235.47;;;57.07;;
355;SDS011;62514;48.112;11.566;2023-12-20T10:57:34;217.10;;;52.37;;
355;SDS011;62514;48.112;11.566;2023-12-20T11:00:01;230.30;;;56.80;;
355;SDS011;62514;48.112;11.566;2023-12-20T11:02:33;227.67;;;54.67;;
355;SDS011;62514;48.112;11.566;2023-12-20T11:05:10;225.87;;;53.80;;
355;SDS011;62514;48.112;11.566;2023-12-20T11:07:58;230.83;;;55.17;;
355;SDS011;62514;48.112;11.566;2023-12-20T11:13:17;230.57;;;55.37;;
355;SDS011;62514;48.112;11.566;2023-12-20T11:15:47;227.87;;;55.37;;
355;SDS011;62514;48.112;11.566;2023-12-20T11:18:13;228.53;;;54.27;;
355;SDS011;62514;48.112;11.566;2023-12-20T11:20:40;231.53;;;57.27;;
355;SDS011;62514;48.112;11.566;2023-12-20T11:23:07;230.27;;;56.27;;
355;SDS011;62514;48.112;11.566;2023-12-20T11:25:45;225.57;;;55.97;;
355;SDS011;62514;48.112;11.566;2023-12-20T11:28:13;231.20;;;57.20;;
355;SDS011;62514;48.112;11.566;2023-12-20T11:33:15;229.73;;;55.87;;
355;SDS011;62514;48.112;11.566;2023-12-20T11:35:42;237.10;;;57.60;;
355;SDS011;62514;48.112;11.566;2023-12-20T11:38:08;232.53;;;55.50;;
355;SDS011;62514;48.112;11.566;2023-12-20T11:40:35;237.77;;;57.20;;
355;SDS011;62514;48.112;11.566;2023-12-20T11:43:02;232.97;;;57.17;;
355;SDS011;62514;48.112;11.566;2023-12-20T11:45:28;237.27;;;58.17;;
355;SDS011;62514;48.112;11.566;2023-12-20T11:47:54;237.17;;;57.60;;
355;SDS011;62514;48.112;11.566;2023-12-20T11:50:22;241.07;;;58.17;;
355;SDS011;62514;48.112;11.566;2023-12-20T11:52:52;241.10;;;58.33;;
355;SDS011;62514;48.112;11.566;2023-12-20T11:55:19;249.27;;;58.80;;
355;SDS011;62514;48.112;11.566;2023-12-20T11:57:44;246.67;;;57.57;;
355;SDS011;62514;48.112;11.566;2023-12-20T12:00:10;243.73;;;60.50;;
355;SDS011;62514;48.112;11.566;2023-12-20T12:02:36;234.57;;;55.23;;
355;SDS011;62514;48.112;11.566;2023-12-20T12:05:02;242.17;;;58.30;;
355;SDS011;62514;48.112;11.566;2023-12-20T12:07:30;243.17;;;58.37;;
355;SDS011;62514;48.112;11.566;2023-12-20T12:09:57;243.27;;;58.60;;
355;SDS011;62514;48.112;11.566;2023-12-20T12:12:23;239.07;;;56.83;;
355;SDS011;62514;48.112;11.566;2023-12-20T12:14:50;237.60;;;56.87;;
355;SDS011;62514;48.112;11.566;2023-12-20T12:17:16;242.40;;;58.73;;
355;SDS011;62514;48.112;11.566;2023-12-20T12:19:42;248.40;;;62.80;;
355;SDS011;62514;48.112;11.566;2023-12-20T12:22:12;241.37;;;57.80;;
355;SDS011;62514;48.112;11.566;2023-12-20T12:24:42;241.90;;;59.27;;
355;SDS011;62514;48.112;11.566;2023-12-20T12:27:09;243.00;;;57.40;;
355;SDS011;62514;48.112;11.566;2023-12-20T12:29:35;251.77;;;62.77;;
355;SDS011;62514;48.112;11.566;2023-12-20T12:32:06;237.33;;;56.20;;
355;SDS011;62514;48.112;11.566;2023-12-20T12:34:33;255.20;;;64.03;;
355;SDS011;62514;48.112;11.566;2023-12-20T12:36:59;235.10;;;56.10;;
355;SDS011;62514;48.112;11.566;2023-12-20T12:39:25;246.20;;;58.27;;
355;SDS011;62514;48.112;11.566;2023-12-20T12:41:51;240.97;;;57.30;;
355;SDS011;62514;48.112;11.566;2023-12-20T12:44:17;244.77;;;58.90;;
355;SDS011;62514;48.112;11.566;2023-12-20T12:46:46;248.97;;;58.60;;
355;SDS011;62514;48.112;11.566;2023-12-20T12:49:14;233.17;;;55.43;;
355;SDS011;62514;48.112;11.566;2023-12-20T12:51:40;244.60;;;59.27;;
355;SDS011;62514;48.112;11.566;2023-12-20T12:54:06;235.23;;;56.77;;
355;SDS011;62514;48.112;11.566;2023-12-20T12:56:32;235.93;;;55.20;;
355;SDS011;62514;48.112;11.566;2023-12-20T12:58:57;241.33;;;57.70;;
355;SDS011;62514;48.112;11.566;2023-12-20T13:01:23;241.40;;;57.87;;
355;SDS011;62514;48.112;11.566;2023-12-20T13:03:49;231.00;;;55.30;;
355;SDS011;62514;48.112;11.566;2023-12-20T13:06:15;238.80;;;56.33;;
355;SDS011;62514;48.112;11.566;2023-12-20T13:08:41;242.80;;;59.03;;
355;SDS011;62514;48.112;11.566;2023-12-20T13:11:06;241.27;;;58.03;;
355;SDS011;62514;48.112;11.566;2023-12-20T13:13:32;237.13;;;58.07;;
355;SDS011;62514;48.112;11.566;2023-12-20T13:15:58;235.73;;;57.07;;
355;SDS011;62514;48.112;11.566;2023-12-20T13:18:24;238.20;;;58.17;;
355;SDS011;62514;48.112;11.566;2023-12-20T13:20:49;232.73;;;56.73;;
355;SDS011;62514;48.112;11.566;2023-12-20T13:23:15;232.03;;;56.53;;
355;SDS011;62514;48.112;11.566;2023-12-20T13:25:43;226.03;;;55.00;;
355;SDS011;62514;48.112;11.566;2023-12-20T13:28:10;229.70;;;55.83;;
355;SDS011;62514;48.112;11.566;2023-12-20T13:30:36;232.47;;;56.10;;
355;SDS011;62514;48.112;11.566;2023-12-20T13:33:02;231.77;;;58.13;;
355;SDS011;62514;48.112;11.566;2023-12-20T13:35:28;227.13;;;55.20;;
355;SDS011;62514;48.112;11.566;2023-12-20T13:37:53;229.30;;;55.50;;
355;SDS011;62514;48.112;11.566;2023-12-20T13:40:19;227.90;;;55.77;;
355;SDS011;62514;48.112;11.566;2023-12-20T13:42:44;223.07;;;55.40;;
355;SDS011;62514;48.112;11.566;2023-12-20T13:45:10;226.10;;;54.57;;
355;SDS011;62514;48.112;11.566;2023-12-20T13:47:36;219.50;;;53.10;;
355;SDS011;62514;48.112;11.566;2023-12-20T13:50:02;231.27;;;57.53;;
355;SDS011;62514;48.112;11.566;2023-12-20T13:52:29;231.70;;;56.40;;
355;SDS011;62514;48.112;11.566;2023-12-20T13:54:54;227.63;;;55.60;;
355;SDS011;62514;48.112;11.566;2023-12-20T13:57:20;222.23;;;54.20;;
355;SDS011;62514;48.112;11.566;2023-12-20T13:59:46;233.17;;;59.23;;
355;SDS011;62514;48.112;11.566;2023-12-20T14:02:11;224.60;;;54.70;;
355;SDS011;62514;48.112;11.566;2023-12-20T14:04:37;227.33;;;55.10;;
355;SDS011;62514;48.112;11.566;2023-12-20T14:07:04;223.40;;;54.50;;
355;SDS011;62514;48.112;11.566;2023-12-20T14:09:30;216.80;;;52.67;;
355;SDS011;62514;48.112;11.566;2023-12-20T14:11:56;225.60;;;54.93;;
355;SDS011;62514;48.112;11.566;2023-12-20T14:14:22;222.10;;;53.80;;
355;SDS011;62514;48.112;11.566;2023-12-20T14:16:47;221.73;;;54.30;;
355;SDS011;62514;48.112;11.566;2023-12-20T14:19:13;220.37;;;53.33;;
355;SDS011;62514;48.112;11.566;2023-12-20T14:21:39;227.73;;;54.97;;